Accueil
METAR-TAF:

METAR-TAF

Aéroports :

Lannion, France

Aéroport de Lannion-Côte de Granit

latitude: 48-45N, longitude: 003-28W, altitude: 89 m

Observation

Le bulletin a été fait il y a 34 minutes, à 03:30 UTC
Vent 4 kt de est/nord-est, variant entre nord/nord-est et est
Température 2°C
Humidité 64%
Pression 1018 hPa
Visibilité 10 km ou plus

METAR: LFRO 250330Z AUTO 06004KT 030V090 9999 NSC 02/M04 Q1018

Heure: 05:04 (04:04 UTC)

Prévision

Le bulletin a été fait il y a 11 heures et 4 minutes, à 17:00 UTC
Prévision valable du 24 à 18 UTC au 25 à 18 UTC
Vent 12 kt de est
Visibilité 10 km ou plus
pas de nuages en-dessous de 1500 mètres et pas de cumulonimbus.
Evoluant progressivement
du 25 à 10 UTC au 25 à 12 UTC
Vent 15 kt de est avec des rafales jusqu'à 28 kt

TAF: LFRO 241700Z 2418/2518 08012KT CAVOK BECMG 2510/2512 08015G28KT

Observations et prévisions météorologiques de plus de 4000 aéroports (messages METAR et TAF).

Les stations disponibles sont représentées par des disques jaunes et rouges sur la carte.

Passer la souris dessus pour voir le nom de la station.

Cliquer dessus pour voir les observations et prévisions météorologiques.

Pour changer de carte: cliquez sur les boutons verts avec une croix noire pour zoomer, sur le bouton vert avec un tiret pour effectuer un zoom arrière, ou sur les flèches vertes pour les cartes adjacentes.


METAR-TAF: